Cabazon, CA (92230)

12:08 AM PDT on September 04, 2015 (GMT -0700)
Aspen Ln | | Change Station
CLOSE
Current Station
Personal Weather Station
Location: Banning, CA
Elevation: 2648 ft
Nearby Weather Stations

Elev 2648 ft 33.94 °N, 116.92 °W | Updated 1 minute ago

Clear
Clear
58.5 °F
Feels Like 58.5 °F
N
4.2
Wind Variable Wind from West

Today
High -- | Low -- °F
--% Chance of Precip.
Yesterday
High -- | Low -- °F
Precip. -- in
6:22 AM 7:09 PM
Waning Gibbous, 62% visible
Pressure 29.72 in
Visibility 10.0 miles
Clouds Clear
Dew Point 51 °F
Humidity 77%
Rainfall 0.00 in
Snow Depth Not available.
UV 0 out of 12
Pollen 7.30 out of 12
Air Quality Not available.
Flu Activity Not available.
METAR KPSP 040653Z 02008KT 10SM CLR 28/09 A2973 RMK AO2 SLP062 T02830089
Pressure 29.72 in
Visibility 10.0 miles
Clouds Clear
Dew Point 51 °F
Humidity 77%
Rainfall 0.00 in
Snow Depth Not available.
UV 0 out of 12
Pollen 7.30 out of 12
Air Quality Not available.
Flu Activity Not available.
METAR KPSP 040653Z 02008KT 10SM CLR 28/09 A2973 RMK AO2 SLP062 T02830089

10-Day Weather Forecast

×

Almanac

Astronomy

Sep. 04, 2015 Rise Set
Actual Time
Civil Twilight
Nautical Twilight
Astronomical Twilight
Moon
Length of Visible Light
Length of Day
Tomorrow will be .
, % of the Moon is Illuminated

Today's Extremes

State Highs State Lows

Community

WunderPhotos

Upload Photos

1,852,132 photos uploaded!

WunderBlogs® & News

Nearby

Air Quality

  Air Quality AQ Index Pollutant
Not available.

Snow Depth

Station Depth Elevation

Earthquake Activity

City Distance Mag. Time & Date
Minimum magnitude displayed is 2.5.

Coastal Water Temperatures

Place Temperature

Stations

Nearby Weather Stations

Station Location Temp. Windchill Dew Point Humidity Wind Precip. Elev Updated Type